Kasur, Pakistan
Current Conditions -  °F | °C
As of 3:25 PM on Friday 21 Nov 2014 (Local Time) from OPLA Reporting Station
Haze Haze  
Wind Chill: 77°   Ceiling: Unl
Heat Index: 78°   Visibility: 2.1mi
Dew Point: 46°   Wind: 3mph
Humidity: 34%   Direction: 330°NNW
Pressure: 29.91"   Gusts: NA
Location:  31.12°N, 74.45°E
Report Text: OPLA 211025Z 33003KT 3500 HZ FEW200 25/08 Q1013
Loading
Personal Weather Stations






























Interactive Weather Map New forecast layout! Learn more

10-Day Weather Forecast

Advertisements
Track Severe Weather on mobile